METAR AND TAF INFORMATION
METAR FOR LTCM
ADDS - METARS form results

(1014 UTC 23 January 2019)
Data provider http://aviationweather.gov/metar/data/
 
METAR text: LTCM 230950Z 14009KT CAVOK 14/03 Q1012
Conditions at: LTCM (SINOP AIRPORT , TR) observed 0950 UTC 23 January 2019
Temperature: 14.0°C (57°F)
Dewpoint: 3.0°C (37°F) [RH = 47%]
Pressure (altimeter): 29.88 inches Hg (1012.0 mb)
Winds: from the SE (140 degrees) at 10 MPH (9 knots; 4.6 m/s)
Visibility: 6 or more miles (10+ km)
Ceiling: ceiling and visibility are OK
Clouds: unknown
Weather: no significant weather observed at this time

Forecast for: LTCM (SINOP AIRPORT , TR)
Text: TAF LTCM 230740Z 2309/2318 16008KT CAVOK
Forecast period: 0900 to 1800 UTC 23 January 2019
Forecast type: FROM: standard forecast or significant change
Winds: from the SSE (160 degrees) at 9 MPH (8 knots; 4.1 m/s)
Visibility: 6 or more miles 10+ km)
Ceiling: unknown
Clouds: missing
Weather: NSW  (no significant weather)

 AIRPORT MAP

 RUNWAY INFORMATION

 AIRPORT FREQUENCIES

 AIRPORT NEAR NAVIGATION AIDS
Type VOR-DME Name Sinop Frequency 114000 KHZ
Type NDB Name Sinop Frequency 465 KHZ



Copyright © 2011 - 2018 BirgenAir Virtual Airlines. All rights reserved. Developed by Goktug Unver